createdAt,value
2022-09-26T00:02:13.085Z,92.61
2022-09-26T00:05:03.090Z,92.32
2022-09-26T00:07:53.315Z,91.97
2022-09-26T00:10:42.409Z,91.93
2022-09-26T00:13:33.425Z,91.65
2022-09-26T00:16:22.617Z,91.49
2022-09-26T00:19:12.968Z,91.41
2022-09-26T00:22:02.622Z,91.24
2022-09-26T00:24:50.700Z,90.90
2022-09-26T00:27:39.118Z,90.42
2022-09-26T00:30:27.187Z,90.38
2022-09-26T00:33:16.096Z,90.19
2022-09-26T00:36:07.135Z,90.18
2022-09-26T00:38:56.236Z,89.85
2022-09-26T00:41:45.897Z,89.64
2022-09-26T00:44:46.216Z,89.57
2022-09-26T00:47:50.114Z,89.21
2022-09-26T00:50:42.119Z,89.00
2022-09-26T00:53:48.583Z,88.79
2022-09-26T00:56:39.453Z,88.08
2022-09-26T00:59:36.093Z,87.92
2022-09-26T01:02:27.368Z,87.64
2022-09-26T01:05:20.331Z,87.12
2022-09-26T01:08:10.740Z,87.06
2022-09-26T01:11:00.126Z,86.94
2022-09-26T01:13:51.191Z,86.63
2022-09-26T01:16:41.983Z,86.64
2022-09-26T01:19:47.197Z,86.70
2022-09-26T01:22:50.417Z,86.55
2022-09-26T01:25:44.059Z,86.57
2022-09-26T01:29:12.958Z,86.72
2022-09-26T01:32:31.589Z,86.67
2022-09-26T01:36:10.383Z,86.88
2022-09-26T01:39:51.425Z,86.78
2022-09-26T01:43:13.297Z,86.98
2022-09-26T01:46:12.080Z,87.01
2022-09-26T01:49:37.762Z,86.84
2022-09-26T01:52:40.004Z,86.51
2022-09-26T01:55:48.419Z,86.36
2022-09-26T01:58:57.630Z,86.41
2022-09-26T02:01:48.978Z,86.50
2022-09-26T02:04:44.221Z,86.45
2022-09-26T02:08:04.660Z,86.42
2022-09-26T02:11:02.429Z,86.12
2022-09-26T02:14:15.764Z,86.09
2022-09-26T02:17:25.798Z,86.05
2022-09-26T02:20:32.035Z,85.83
2022-09-26T02:23:20.552Z,86.01
2022-09-26T02:26:08.801Z,85.84
2022-09-26T02:28:57.136Z,86.20
2022-09-26T02:32:28.225Z,86.34
2022-09-26T02:35:36.171Z,86.54
2022-09-26T02:38:30.659Z,86.66
2022-09-26T02:41:41.957Z,86.48
2022-09-26T02:44:50.677Z,86.87
2022-09-26T02:48:14.648Z,86.77
2022-09-26T02:51:21.360Z,86.73
2022-09-26T02:55:25.808Z,86.93
2022-09-26T02:59:04.644Z,86.81
2022-09-26T03:02:16.028Z,86.56
2022-09-26T03:05:15.335Z,86.34
2022-09-26T03:08:12.030Z,85.98
2022-09-26T03:11:05.295Z,85.88
2022-09-26T03:13:56.384Z,85.98
2022-09-26T03:16:46.827Z,86.10
2022-09-26T03:20:22.042Z,85.89
2022-09-26T03:23:11.346Z,86.15
2022-09-26T03:26:17.559Z,86.12
2022-09-26T03:29:12.244Z,86.34
2022-09-26T03:32:01.867Z,86.23
2022-09-26T03:34:50.772Z,86.38
2022-09-26T03:37:42.273Z,86.20
2022-09-26T03:40:30.904Z,86.23
2022-09-26T03:43:43.915Z,86.23
2022-09-26T03:46:37.739Z,86.12
2022-09-26T03:49:30.310Z,86.23
2022-09-26T03:52:20.338Z,86.23
2022-09-26T03:55:10.032Z,86.22
2022-09-26T03:58:04.931Z,86.10
2022-09-26T04:01:25.628Z,85.93
2022-09-26T04:04:16.593Z,85.69
2022-09-26T04:07:06.353Z,85.57
2022-09-26T04:09:57.215Z,85.14
2022-09-26T04:12:52.461Z,85.00
2022-09-26T04:15:42.528Z,84.81
2022-09-26T04:18:39.820Z,84.62
2022-09-26T04:21:35.715Z,84.04
2022-09-26T04:24:27.104Z,84.06
2022-09-26T04:27:16.862Z,83.96
2022-09-26T04:30:07.786Z,84.03
2022-09-26T04:33:02.624Z,84.10
2022-09-26T04:35:53.289Z,83.88
2022-09-26T04:38:41.860Z,84.14
2022-09-26T04:41:32.651Z,84.10
2022-09-26T04:44:20.798Z,84.31
2022-09-26T04:47:08.950Z,84.29
2022-09-26T04:50:16.765Z,84.24
2022-09-26T04:53:20.471Z,84.41
2022-09-26T04:56:37.345Z,84.39
2022-09-26T04:59:25.923Z,84.57
2022-09-26T05:02:21.101Z,84.32
2022-09-26T05:05:09.796Z,84.28
2022-09-26T05:07:57.843Z,84.47
2022-09-26T05:10:57.249Z,84.88
2022-09-26T05:13:49.041Z,85.09
2022-09-26T05:16:40.647Z,85.17
2022-09-26T05:19:31.069Z,85.38
2022-09-26T05:22:45.551Z,85.76
2022-09-26T05:26:00.350Z,85.40
2022-09-26T05:28:57.534Z,86.09
2022-09-26T05:31:48.073Z,86.68
2022-09-26T05:34:36.105Z,86.89
2022-09-26T05:37:24.826Z,86.65
2022-09-26T05:40:31.417Z,87.09
2022-09-26T05:43:22.993Z,88.45
2022-09-26T05:46:12.954Z,90.17
2022-09-26T05:49:06.836Z,92.01
2022-09-26T05:51:55.233Z,92.51
2022-09-26T05:54:43.544Z,92.63
2022-09-26T05:58:05.883Z,92.29
2022-09-26T06:01:18.908Z,92.06
2022-09-26T06:04:06.974Z,92.20
2022-09-26T06:07:01.840Z,91.92
2022-09-26T06:09:49.701Z,91.48
2022-09-26T06:12:52.874Z,91.33
2022-09-26T06:15:42.957Z,90.45
2022-09-26T06:18:30.867Z,89.31
2022-09-26T06:21:20.887Z,88.96
2022-09-26T06:24:13.335Z,88.11
2022-09-26T06:27:02.500Z,87.64
2022-09-26T06:29:52.430Z,87.45
2022-09-26T06:32:40.275Z,87.04
2022-09-26T06:36:03.199Z,86.55
2022-09-26T06:38:57.876Z,86.55
2022-09-26T06:41:46.160Z,86.16
2022-09-26T06:44:56.792Z,86.41
2022-09-26T06:47:46.765Z,86.71
2022-09-26T06:51:00.701Z,86.12
2022-09-26T06:53:50.532Z,85.91
2022-09-26T06:56:41.930Z,85.23
2022-09-26T06:59:30.050Z,84.35
2022-09-26T07:02:28.387Z,83.82
2022-09-26T07:05:35.357Z,82.89
2022-09-26T07:08:49.946Z,81.01
2022-09-26T07:11:50.899Z,75.45
2022-09-26T07:14:44.047Z,74.41
2022-09-26T07:17:51.564Z,74.91
2022-09-26T07:20:55.880Z,74.84
2022-09-26T07:23:58.117Z,73.75
2022-09-26T07:26:46.897Z,68.38
2022-09-26T07:29:34.812Z,67.63
2022-09-26T07:32:26.246Z,67.37
2022-09-26T07:35:36.493Z,67.53
2022-09-26T07:38:25.988Z,66.69
2022-09-26T07:41:15.342Z,65.11
2022-09-26T07:45:01.844Z,61.98
2022-09-26T07:47:30.698Z,56.38
2022-09-26T07:50:20.257Z,54.22
2022-09-26T07:53:41.450Z,52.76
2022-09-26T07:56:50.264Z,50.58
2022-09-26T07:59:54.858Z,50.21
2022-09-26T08:03:05.300Z,50.22
2022-09-26T08:06:01.159Z,48.71
2022-09-26T08:08:53.007Z,48.06
2022-09-26T08:12:01.009Z,48.18
2022-09-26T08:15:15.878Z,45.85
2022-09-26T08:18:06.883Z,45.73
2022-09-26T08:20:54.675Z,44.87
2022-09-26T08:23:42.721Z,43.88
2022-09-26T08:26:50.047Z,40.91
2022-09-26T08:29:49.683Z,40.41
2022-09-26T08:32:38.198Z,39.88
2022-09-26T08:35:26.784Z,40.06
2022-09-26T08:38:35.611Z,40.00
2022-09-26T08:42:04.788Z,38.58
2022-09-26T08:46:04.716Z,39.74
2022-09-26T08:49:30.005Z,38.93
2022-09-26T08:52:39.573Z,38.97
2022-09-26T08:55:43.199Z,40.80
2022-09-26T08:58:45.315Z,41.75
2022-09-26T09:01:39.894Z,41.26
2022-09-26T09:04:54.167Z,38.83
2022-09-26T09:07:50.486Z,39.17
2022-09-26T09:10:56.824Z,39.22
2022-09-26T09:14:09.645Z,38.27
2022-09-26T09:17:44.238Z,38.81
2022-09-26T09:21:12.638Z,39.98
2022-09-26T09:24:45.357Z,41.76
2022-09-26T09:27:54.588Z,41.74
2022-09-26T09:30:58.556Z,40.49
2022-09-26T09:34:30.181Z,40.68
2022-09-26T09:37:49.426Z,38.89
2022-09-26T09:41:17.980Z,37.39
2022-09-26T09:44:40.955Z,37.25
2022-09-26T09:47:36.581Z,36.17
2022-09-26T09:50:43.319Z,36.11
2022-09-26T09:53:43.770Z,37.00
2022-09-26T09:57:09.115Z,37.27
2022-09-26T10:00:17.021Z,36.29
2022-09-26T10:03:53.418Z,35.88
2022-09-26T10:06:46.039Z,35.15
2022-09-26T10:09:42.023Z,34.59
2022-09-26T10:12:51.501Z,34.30
2022-09-26T10:16:15.563Z,35.11
2022-09-26T10:19:13.528Z,35.68
2022-09-26T10:22:01.817Z,35.46
2022-09-26T10:24:51.970Z,34.77
2022-09-26T10:27:48.629Z,34.02
2022-09-26T10:30:50.230Z,34.44
2022-09-26T10:33:46.016Z,34.42
2022-09-26T10:36:42.315Z,36.60
2022-09-26T10:39:49.738Z,38.74
2022-09-26T10:42:38.643Z,39.54
2022-09-26T10:45:35.366Z,39.51
2022-09-26T10:48:56.574Z,40.80
2022-09-26T10:52:10.972Z,41.12
2022-09-26T10:55:11.950Z,41.56
2022-09-26T10:58:10.070Z,42.88
2022-09-26T11:01:01.730Z,44.10
2022-09-26T11:03:51.802Z,44.98
2022-09-26T11:06:44.453Z,45.21
2022-09-26T11:09:42.315Z,45.82
2022-09-26T11:13:04.188Z,46.53
2022-09-26T11:16:02.163Z,46.61
2022-09-26T11:19:13.210Z,47.82
2022-09-26T11:22:38.779Z,48.40
2022-09-26T11:25:42.414Z,49.29
2022-09-26T11:28:42.220Z,49.88
2022-09-26T11:32:00.166Z,51.01
2022-09-26T11:35:03.295Z,51.31
2022-09-26T11:38:24.182Z,51.56
2022-09-26T11:41:42.182Z,52.41
2022-09-26T11:44:58.072Z,52.08
2022-09-26T11:48:20.838Z,52.50
2022-09-26T11:52:02.722Z,52.97
2022-09-26T11:55:15.326Z,53.18
2022-09-26T11:58:43.747Z,53.53
2022-09-26T12:02:13.106Z,52.92
2022-09-26T12:05:27.768Z,52.74
2022-09-26T12:08:37.905Z,52.15
2022-09-26T12:11:53.396Z,52.63
2022-09-26T12:14:44.560Z,52.74
2022-09-26T12:17:52.680Z,52.74
2022-09-26T12:20:56.836Z,52.50
2022-09-26T12:24:01.850Z,50.21
2022-09-26T12:27:45.889Z,48.92
2022-09-26T12:31:19.497Z,47.33
2022-09-26T12:35:10.187Z,47.71
2022-09-26T12:38:56.647Z,47.06
2022-09-26T12:42:09.995Z,47.91
2022-09-26T12:45:18.241Z,47.95
2022-09-26T12:48:30.343Z,48.12
2022-09-26T12:51:52.294Z,47.89
2022-09-26T12:55:02.413Z,48.18
2022-09-26T12:58:06.055Z,47.65
2022-09-26T13:01:32.689Z,47.46
2022-09-26T13:04:44.165Z,47.45
2022-09-26T13:07:51.618Z,46.98
2022-09-26T13:10:55.984Z,46.79
2022-09-26T13:14:38.852Z,47.77
2022-09-26T13:17:41.996Z,48.94
2022-09-26T13:20:59.028Z,49.86
2022-09-26T13:24:14.017Z,48.70
2022-09-26T13:28:06.583Z,46.81
2022-09-26T13:31:04.504Z,47.10
2022-09-26T13:34:02.840Z,46.81
2022-09-26T13:36:51.608Z,47.25
2022-09-26T13:39:54.625Z,48.42
2022-09-26T13:42:50.987Z,49.00
2022-09-26T13:45:50.866Z,47.65
2022-09-26T13:49:01.088Z,47.30
2022-09-26T13:52:05.402Z,47.56
2022-09-26T13:55:13.075Z,48.11
2022-09-26T13:58:19.229Z,48.68
2022-09-26T14:01:26.736Z,49.21
2022-09-26T14:04:34.070Z,49.60
2022-09-26T14:08:11.975Z,50.92
2022-09-26T14:11:29.502Z,51.56
2022-09-26T14:14:22.091Z,52.47
2022-09-26T14:17:44.052Z,51.81
2022-09-26T14:20:53.067Z,50.13
2022-09-26T14:23:50.355Z,49.86
2022-09-26T14:26:44.649Z,49.82
2022-09-26T14:29:38.754Z,49.44
2022-09-26T14:32:39.484Z,50.14
2022-09-26T14:35:40.352Z,49.97
2022-09-26T14:38:30.018Z,49.96
2022-09-26T14:41:21.564Z,50.63
2022-09-26T14:44:21.007Z,50.43
2022-09-26T14:47:17.404Z,50.80
2022-09-26T14:50:16.086Z,51.51
2022-09-26T14:53:31.090Z,51.22
2022-09-26T14:56:41.310Z,51.91
2022-09-26T14:59:35.313Z,51.96
2022-09-26T15:02:41.479Z,52.45
2022-09-26T15:05:29.417Z,53.00
2022-09-26T15:08:30.258Z,52.84
2022-09-26T15:11:44.486Z,53.25
2022-09-26T15:14:52.833Z,53.25
2022-09-26T15:17:47.708Z,53.77
2022-09-26T15:20:42.787Z,54.04
2022-09-26T15:23:34.917Z,54.50
2022-09-26T15:26:32.125Z,55.49
2022-09-26T15:29:20.383Z,56.14
2022-09-26T15:32:23.956Z,56.43
2022-09-26T15:35:14.360Z,55.90
2022-09-26T15:38:13.243Z,56.08
2022-09-26T15:41:04.340Z,56.15
2022-09-26T15:44:01.102Z,56.22
2022-09-26T15:46:51.396Z,56.37
2022-09-26T15:49:40.067Z,56.53
2022-09-26T15:52:28.087Z,57.47
2022-09-26T15:55:43.517Z,58.40
2022-09-26T15:58:53.076Z,59.46
2022-09-26T16:01:45.182Z,59.86
2022-09-26T16:04:33.469Z,60.34
2022-09-26T16:07:30.962Z,60.20
2022-09-26T16:10:33.958Z,60.19
2022-09-26T16:13:25.747Z,60.37
2022-09-26T16:16:19.475Z,60.37
2022-09-26T16:19:30.881Z,60.79
2022-09-26T16:22:51.697Z,60.74
2022-09-26T16:25:56.566Z,61.03
2022-09-26T16:28:46.477Z,61.59
2022-09-26T16:31:45.119Z,61.94
2022-09-26T16:34:33.101Z,62.61
2022-09-26T16:37:23.284Z,62.96
2022-09-26T16:40:18.927Z,63.76
2022-09-26T16:43:14.735Z,63.14
2022-09-26T16:46:17.650Z,63.01
2022-09-26T16:49:29.264Z,63.02
2022-09-26T16:52:32.170Z,62.65
2022-09-26T16:55:23.430Z,62.87
2022-09-26T16:58:14.188Z,63.37
2022-09-26T17:01:22.160Z,63.75
2022-09-26T17:04:20.643Z,64.80
2022-09-26T17:07:14.409Z,65.11
2022-09-26T17:10:02.821Z,64.88
2022-09-26T17:12:53.786Z,64.75
2022-09-26T17:15:42.187Z,64.83
2022-09-26T17:18:33.313Z,65.98
2022-09-26T17:21:21.178Z,67.42
2022-09-26T17:24:30.181Z,68.18
2022-09-26T17:27:29.834Z,68.80
2022-09-26T17:30:19.664Z,70.15
2022-09-26T17:33:10.453Z,70.83
2022-09-26T17:35:58.533Z,71.36
2022-09-26T17:38:46.917Z,72.01
2022-09-26T17:41:34.977Z,72.64
2022-09-26T17:44:23.285Z,73.09
2022-09-26T17:47:11.837Z,73.97
2022-09-26T17:50:00.035Z,74.63
2022-09-26T17:52:48.123Z,74.80
2022-09-26T17:55:35.937Z,75.24
2022-09-26T17:58:23.930Z,75.82
2022-09-26T18:01:34.356Z,76.02
2022-09-26T18:04:26.044Z,75.83
2022-09-26T18:07:15.355Z,75.91
2022-09-26T18:10:08.567Z,75.19
2022-09-26T18:13:12.711Z,75.06
2022-09-26T18:16:02.309Z,75.02
2022-09-26T18:18:50.770Z,74.82
2022-09-26T18:21:40.410Z,74.11
2022-09-26T18:24:29.960Z,73.72
2022-09-26T18:27:18.153Z,74.07
2022-09-26T18:30:08.108Z,74.08
2022-09-26T18:32:56.679Z,74.33
2022-09-26T18:35:45.874Z,74.77
2022-09-26T18:38:35.652Z,74.96
2022-09-26T18:41:27.131Z,75.33
2022-09-26T18:44:18.164Z,75.26
2022-09-26T18:47:15.511Z,74.78
2022-09-26T18:50:06.507Z,73.79
2022-09-26T18:52:54.796Z,73.72
2022-09-26T18:56:01.284Z,73.51
2022-09-26T18:58:49.757Z,72.30
2022-09-26T19:01:43.006Z,70.60
2022-09-26T19:04:31.882Z,70.50
2022-09-26T19:07:22.330Z,70.48
2022-09-26T19:10:16.574Z,69.06
2022-09-26T19:13:06.278Z,68.40
2022-09-26T19:15:54.514Z,68.33
2022-09-26T19:18:44.018Z,68.80
2022-09-26T19:22:11.506Z,68.25
2022-09-26T19:25:02.417Z,66.83
2022-09-26T19:27:53.608Z,65.53
2022-09-26T19:30:41.916Z,64.18
2022-09-26T19:33:30.697Z,62.92
2022-09-26T19:36:20.203Z,61.52
2022-09-26T19:39:15.631Z,61.00
2022-09-26T19:42:03.714Z,61.22
2022-09-26T19:44:51.662Z,61.46
2022-09-26T19:47:44.764Z,62.10
2022-09-26T19:50:38.584Z,63.44
2022-09-26T19:53:27.335Z,64.85
2022-09-26T19:56:15.403Z,65.68
2022-09-26T19:59:04.523Z,67.22
2022-09-26T20:01:52.443Z,67.95
2022-09-26T20:04:40.606Z,68.64
2022-09-26T20:07:28.652Z,69.29
2022-09-26T20:10:20.024Z,70.42
2022-09-26T20:13:08.411Z,72.02
2022-09-26T20:15:57.117Z,74.04
2022-09-26T20:18:48.859Z,74.45
2022-09-26T20:21:39.058Z,76.46
2022-09-26T20:24:28.521Z,77.24
2022-09-26T20:27:29.192Z,77.91
2022-09-26T20:30:37.753Z,79.32
2022-09-26T20:33:27.329Z,79.18
2022-09-26T20:36:27.508Z,79.64
2022-09-26T20:39:42.719Z,80.13
2022-09-26T20:42:44.150Z,80.83
2022-09-26T20:45:44.186Z,81.01
2022-09-26T20:48:35.112Z,81.60
2022-09-26T20:51:31.943Z,81.52
2022-09-26T20:54:31.256Z,81.99
2022-09-26T20:57:23.307Z,82.08
2022-09-26T21:00:20.922Z,82.64
2022-09-26T21:03:17.364Z,82.31
2022-09-26T21:06:10.298Z,83.00
2022-09-26T21:09:01.530Z,82.95
2022-09-26T21:11:49.510Z,82.88
2022-09-26T21:14:37.223Z,83.11
2022-09-26T21:17:30.013Z,83.25
2022-09-26T21:20:30.925Z,83.72
2022-09-26T21:23:48.521Z,83.99
2022-09-26T21:26:36.558Z,84.39
2022-09-26T21:29:24.605Z,85.31
2022-09-26T21:32:19.345Z,85.31
2022-09-26T21:35:07.913Z,85.41
2022-09-26T21:37:56.802Z,85.73
2022-09-26T21:40:47.175Z,86.11
2022-09-26T21:43:41.819Z,86.49
2022-09-26T21:46:30.206Z,86.45
2022-09-26T21:49:18.915Z,86.11
2022-09-26T21:52:17.015Z,86.87
2022-09-26T21:55:06.526Z,86.54
2022-09-26T21:57:56.018Z,86.89
2022-09-26T22:00:46.110Z,86.68
2022-09-26T22:03:35.936Z,86.76
2022-09-26T22:06:23.786Z,86.94
2022-09-26T22:09:11.979Z,87.42
2022-09-26T22:12:00.194Z,87.36
2022-09-26T22:14:48.374Z,87.07
2022-09-26T22:17:36.767Z,87.32
2022-09-26T22:20:25.114Z,87.47
2022-09-26T22:23:12.938Z,87.18
2022-09-26T22:26:01.097Z,87.23
2022-09-26T22:28:49.613Z,87.42
2022-09-26T22:31:38.506Z,87.69
2022-09-26T22:34:27.294Z,87.35
2022-09-26T22:37:16.561Z,87.20
2022-09-26T22:40:09.306Z,86.93
2022-09-26T22:42:57.264Z,86.41
2022-09-26T22:45:45.255Z,86.38
2022-09-26T22:48:38.544Z,86.08
2022-09-26T22:51:27.166Z,86.39
2022-09-26T22:54:15.197Z,86.06
2022-09-26T22:57:03.069Z,85.63
2022-09-26T22:59:50.980Z,85.78
2022-09-26T23:02:39.262Z,85.82
2022-09-26T23:05:27.826Z,85.92
2022-09-26T23:08:15.699Z,86.09
2022-09-26T23:11:05.469Z,85.93
2022-09-26T23:13:53.703Z,85.98
2022-09-26T23:16:41.690Z,85.80
2022-09-26T23:19:29.715Z,85.58
2022-09-26T23:22:17.735Z,85.57
2022-09-26T23:25:07.811Z,85.36
2022-09-26T23:27:55.738Z,85.16
2022-09-26T23:30:44.521Z,85.32
2022-09-26T23:33:33.068Z,85.14
2022-09-26T23:36:21.450Z,84.94
2022-09-26T23:39:09.186Z,85.23
2022-09-26T23:41:57.677Z,85.43
2022-09-26T23:44:45.678Z,85.39
2022-09-26T23:47:33.538Z,85.73
2022-09-26T23:50:21.744Z,85.71
2022-09-26T23:53:10.205Z,85.98
2022-09-26T23:56:11.702Z,86.05
2022-09-26T23:58:59.571Z,86.16
